createdAt,value
2022-12-12T00:02:03.651Z,100.00
2022-12-12T00:05:15.547Z,100.00
2022-12-12T00:08:21.667Z,100.00
2022-12-12T00:11:28.262Z,100.00
2022-12-12T00:14:34.334Z,100.00
2022-12-12T00:17:40.477Z,100.00
2022-12-12T00:20:52.850Z,100.00
2022-12-12T00:23:59.461Z,100.00
2022-12-12T00:27:05.339Z,100.00
2022-12-12T00:30:12.459Z,100.00
2022-12-12T00:33:18.763Z,100.00
2022-12-12T00:36:29.445Z,100.00
2022-12-12T00:39:35.730Z,100.00
2022-12-12T00:42:41.616Z,100.00
2022-12-12T00:45:47.920Z,100.00
2022-12-12T00:48:56.507Z,100.00
2022-12-12T00:52:04.263Z,100.00
2022-12-12T00:55:13.140Z,100.00
2022-12-12T00:58:19.388Z,100.00
2022-12-12T01:01:27.845Z,100.00
2022-12-12T01:04:33.985Z,100.00
2022-12-12T01:07:42.029Z,100.00
2022-12-12T01:10:48.485Z,100.00
2022-12-12T01:13:55.952Z,100.00
2022-12-12T01:17:02.266Z,100.00
2022-12-12T01:20:16.006Z,100.00
2022-12-12T01:23:23.602Z,100.00
2022-12-12T01:26:29.937Z,100.00
2022-12-12T01:29:36.722Z,100.00
2022-12-12T01:32:42.995Z,100.00
2022-12-12T01:35:49.089Z,100.00
2022-12-12T01:38:57.595Z,100.00
2022-12-12T01:42:03.647Z,100.00
2022-12-12T01:45:30.653Z,100.00
2022-12-12T01:48:40.742Z,100.00
2022-12-12T01:51:49.477Z,100.00
2022-12-12T01:54:59.823Z,100.00
2022-12-12T01:58:06.461Z,100.00
2022-12-12T02:01:13.102Z,100.00
2022-12-12T02:04:19.785Z,100.00
2022-12-12T02:07:25.914Z,100.00
2022-12-12T02:10:33.932Z,100.00
2022-12-12T02:13:40.449Z,100.00
2022-12-12T02:16:59.580Z,100.00
2022-12-12T02:20:44.843Z,100.00
2022-12-12T02:24:30.941Z,100.00
2022-12-12T02:27:56.719Z,100.00
2022-12-12T02:31:16.763Z,100.00
2022-12-12T02:34:34.853Z,100.00
2022-12-12T02:37:46.273Z,100.00
2022-12-12T02:41:02.727Z,100.00
2022-12-12T02:44:18.147Z,100.00
2022-12-12T02:47:31.132Z,100.00
2022-12-12T02:50:38.616Z,100.00
2022-12-12T02:53:45.201Z,100.00
2022-12-12T02:56:54.904Z,100.00
2022-12-12T03:00:03.788Z,100.00
2022-12-12T03:03:46.445Z,100.00
2022-12-12T03:07:20.006Z,100.00
2022-12-12T03:10:38.542Z,100.00
2022-12-12T03:13:50.881Z,100.00
2022-12-12T03:17:04.366Z,100.00
2022-12-12T03:20:19.683Z,100.00
2022-12-12T03:23:29.802Z,100.00
2022-12-12T03:26:45.341Z,100.00
2022-12-12T03:29:56.752Z,100.00
2022-12-12T03:33:12.869Z,100.00
2022-12-12T03:36:25.738Z,100.00
2022-12-12T03:39:36.855Z,100.00
2022-12-12T03:42:47.127Z,100.00
2022-12-12T03:45:59.728Z,100.00
2022-12-12T03:49:09.763Z,100.00
2022-12-12T03:52:24.279Z,100.00
2022-12-12T03:55:39.003Z,100.00
2022-12-12T03:58:50.647Z,100.00
2022-12-12T04:02:01.599Z,100.00
2022-12-12T04:05:16.409Z,100.00
2022-12-12T04:08:24.081Z,100.00
2022-12-12T04:11:57.269Z,100.00
2022-12-12T04:15:23.368Z,100.00
2022-12-12T04:18:39.049Z,100.00
2022-12-12T04:22:08.639Z,100.00
2022-12-12T04:25:28.158Z,100.00
2022-12-12T04:28:35.930Z,100.00
2022-12-12T04:31:46.822Z,100.00
2022-12-12T04:34:58.833Z,100.00
2022-12-12T04:38:07.539Z,100.00
2022-12-12T04:41:17.403Z,100.00
2022-12-12T04:44:25.995Z,100.00
2022-12-12T04:47:33.303Z,100.00
2022-12-12T04:50:40.981Z,100.00
2022-12-12T04:53:54.342Z,100.00
2022-12-12T04:57:05.106Z,100.00
2022-12-12T05:00:13.862Z,100.00
2022-12-12T05:03:26.319Z,100.00
2022-12-12T05:06:38.297Z,100.00
2022-12-12T05:09:45.301Z,100.00
2022-12-12T05:12:58.682Z,100.00
2022-12-12T05:16:14.113Z,100.00
2022-12-12T05:19:20.230Z,100.00
2022-12-12T05:22:26.392Z,100.00
2022-12-12T05:25:32.763Z,100.00
2022-12-12T05:28:40.213Z,100.00
2022-12-12T05:31:46.269Z,100.00
2022-12-12T05:34:52.720Z,100.00
2022-12-12T05:37:59.183Z,100.00
2022-12-12T05:41:06.584Z,100.00
2022-12-12T05:44:14.039Z,100.00
2022-12-12T05:47:20.328Z,100.00
2022-12-12T05:50:26.369Z,100.00
2022-12-12T05:53:36.404Z,100.00
2022-12-12T05:56:48.653Z,100.00
2022-12-12T05:59:56.070Z,100.00
2022-12-12T06:03:02.209Z,100.00
2022-12-12T06:06:08.474Z,100.00
2022-12-12T06:09:14.505Z,100.00
2022-12-12T06:12:20.711Z,100.00
2022-12-12T06:15:28.352Z,100.00
2022-12-12T06:18:34.818Z,100.00
2022-12-12T06:21:40.832Z,100.00
2022-12-12T06:24:47.056Z,100.00
2022-12-12T06:27:53.564Z,100.00
2022-12-12T06:31:03.586Z,100.00
2022-12-12T06:34:12.049Z,100.00
2022-12-12T06:37:18.100Z,100.00
2022-12-12T06:40:24.320Z,100.00
2022-12-12T06:43:30.858Z,100.00
2022-12-12T06:46:38.764Z,100.00
2022-12-12T06:49:44.976Z,100.00
2022-12-12T06:52:51.231Z,100.00
2022-12-12T06:55:57.388Z,100.00
2022-12-12T06:59:03.354Z,100.00
2022-12-12T07:02:12.755Z,100.00
2022-12-12T07:05:19.609Z,100.00
2022-12-12T07:08:25.692Z,100.00
2022-12-12T07:11:31.982Z,100.00
2022-12-12T07:14:40.497Z,100.00
2022-12-12T07:17:48.232Z,100.00
2022-12-12T07:20:54.500Z,100.00
2022-12-12T07:24:00.660Z,100.00
2022-12-12T07:27:07.735Z,100.00
2022-12-12T07:30:14.132Z,100.00
2022-12-12T07:33:21.801Z,100.00
2022-12-12T07:36:28.018Z,100.00
2022-12-12T07:39:35.145Z,100.00
2022-12-12T07:42:41.322Z,100.00
2022-12-12T07:45:48.088Z,100.00
2022-12-12T07:48:55.784Z,100.00
2022-12-12T07:52:03.042Z,100.00
2022-12-12T07:55:11.279Z,100.00
2022-12-12T07:58:17.415Z,100.00
2022-12-12T08:01:25.482Z,100.00
2022-12-12T08:04:33.239Z,100.00
2022-12-12T08:07:39.762Z,100.00
2022-12-12T08:10:46.120Z,100.00
2022-12-12T08:13:53.367Z,100.00
2022-12-12T08:17:00.068Z,100.00
2022-12-12T08:20:08.453Z,100.00
2022-12-12T08:23:14.539Z,100.00
2022-12-12T08:26:20.948Z,100.00
2022-12-12T08:29:27.165Z,100.00
2022-12-12T08:32:33.398Z,100.00
2022-12-12T08:35:41.130Z,100.00
2022-12-12T08:38:48.247Z,100.00
2022-12-12T08:41:54.424Z,100.00
2022-12-12T08:45:00.541Z,100.00
2022-12-12T08:48:07.747Z,100.00
2022-12-12T08:51:15.246Z,100.00
2022-12-12T08:54:21.277Z,100.00
2022-12-12T08:57:27.712Z,100.00
2022-12-12T09:00:33.909Z,100.00
2022-12-12T09:03:40.282Z,100.00
2022-12-12T09:06:48.132Z,100.00
2022-12-12T09:09:54.527Z,100.00
2022-12-12T09:13:00.819Z,100.00
2022-12-12T09:16:08.922Z,100.00
2022-12-12T09:19:15.112Z,100.00
2022-12-12T09:22:22.723Z,100.00
2022-12-12T09:25:29.053Z,100.00
2022-12-12T09:28:36.308Z,100.00
2022-12-12T09:31:42.751Z,100.00
2022-12-12T09:34:49.176Z,100.00
2022-12-12T09:37:56.850Z,100.00
2022-12-12T09:41:05.505Z,100.00
2022-12-12T09:44:16.065Z,100.00
2022-12-12T09:47:35.043Z,100.00
2022-12-12T09:50:50.431Z,100.00
2022-12-12T09:53:58.684Z,100.00
2022-12-12T09:57:17.654Z,100.00
2022-12-12T10:00:23.819Z,100.00
2022-12-12T10:03:45.840Z,100.00
2022-12-12T10:06:58.477Z,100.00
2022-12-12T10:10:18.693Z,100.00
2022-12-12T10:13:28.062Z,100.00
2022-12-12T10:16:34.862Z,100.00
2022-12-12T10:19:50.396Z,100.00
2022-12-12T10:23:03.333Z,100.00
2022-12-12T10:26:16.611Z,100.00
2022-12-12T10:29:26.157Z,100.00
2022-12-12T10:32:41.881Z,100.00
2022-12-12T10:35:56.825Z,100.00
2022-12-12T10:39:14.279Z,100.00
2022-12-12T10:42:27.542Z,100.00
2022-12-12T10:46:11.042Z,100.00
2022-12-12T10:49:20.216Z,100.00
2022-12-12T10:52:26.948Z,100.00
2022-12-12T10:55:42.331Z,100.00
2022-12-12T10:58:56.199Z,100.00
2022-12-12T11:02:10.604Z,100.00
2022-12-12T11:05:21.272Z,92.98
2022-12-12T11:08:30.267Z,94.10
2022-12-12T11:11:37.075Z,95.70
2022-12-12T11:14:49.287Z,87.51
2022-12-12T11:18:01.272Z,89.27
2022-12-12T11:21:14.627Z,87.37
2022-12-12T11:24:23.255Z,79.82
2022-12-12T11:27:33.702Z,84.61
2022-12-12T11:30:44.823Z,82.34
2022-12-12T11:33:54.719Z,78.77
2022-12-12T11:37:01.581Z,79.11
2022-12-12T11:40:23.954Z,75.99
2022-12-12T11:43:31.945Z,82.62
2022-12-12T11:46:39.795Z,74.91
2022-12-12T11:49:48.974Z,73.71
2022-12-12T11:52:57.452Z,71.23
2022-12-12T11:56:21.640Z,72.20
2022-12-12T11:59:56.995Z,64.78
2022-12-12T12:03:32.560Z,66.37
2022-12-12T12:06:57.405Z,63.28
2022-12-12T12:10:22.541Z,63.45
2022-12-12T12:13:44.109Z,70.01
2022-12-12T12:16:59.435Z,80.75
2022-12-12T12:20:19.271Z,82.08
2022-12-12T12:23:41.837Z,74.45
2022-12-12T12:27:01.045Z,79.76
2022-12-12T12:30:26.206Z,74.10
2022-12-12T12:33:52.408Z,72.35
2022-12-12T12:37:20.437Z,79.95
2022-12-12T12:40:45.442Z,83.58
2022-12-12T12:44:04.726Z,86.04
2022-12-12T12:47:25.316Z,84.73
2022-12-12T12:50:35.934Z,76.78
2022-12-12T12:53:47.593Z,69.85
2022-12-12T12:57:01.010Z,77.38
2022-12-12T13:00:10.854Z,67.06
2022-12-12T13:03:22.944Z,68.40
2022-12-12T13:06:39.500Z,69.17
2022-12-12T13:09:54.002Z,70.41
2022-12-12T13:13:05.807Z,74.65
2022-12-12T13:16:15.443Z,76.37
2022-12-12T13:19:30.709Z,74.26
2022-12-12T13:22:47.298Z,81.12
2022-12-12T13:26:02.266Z,80.43
2022-12-12T13:29:26.503Z,80.06
2022-12-12T13:33:00.607Z,88.65
2022-12-12T13:36:16.103Z,87.05
2022-12-12T13:39:30.152Z,94.32
2022-12-12T13:42:56.345Z,100.00
2022-12-12T13:46:38.235Z,100.00
2022-12-12T13:49:51.758Z,100.00
2022-12-12T13:53:21.112Z,100.00
2022-12-12T13:56:42.334Z,100.00
2022-12-12T14:00:24.558Z,100.00
2022-12-12T14:03:32.040Z,100.00
2022-12-12T14:06:38.583Z,100.00
2022-12-12T14:09:49.340Z,100.00
2022-12-12T14:12:56.758Z,100.00
2022-12-12T14:16:08.126Z,100.00
2022-12-12T14:19:30.044Z,100.00
2022-12-12T14:23:09.860Z,100.00
2022-12-12T14:26:48.356Z,100.00
2022-12-12T14:29:54.901Z,100.00
2022-12-12T14:33:12.990Z,100.00
2022-12-12T14:37:00.843Z,100.00
2022-12-12T14:40:15.899Z,100.00
2022-12-12T14:43:26.734Z,100.00
2022-12-12T14:46:33.283Z,100.00
2022-12-12T14:49:41.436Z,100.00
2022-12-12T14:52:47.780Z,100.00
2022-12-12T14:55:58.508Z,100.00
2022-12-12T14:59:08.258Z,100.00
2022-12-12T15:02:21.136Z,100.00
2022-12-12T15:05:28.706Z,100.00
2022-12-12T15:08:35.211Z,100.00
2022-12-12T15:11:41.417Z,100.00
2022-12-12T15:14:56.088Z,100.00
2022-12-12T15:18:03.169Z,100.00
2022-12-12T15:21:10.809Z,100.00
2022-12-12T15:24:23.182Z,100.00
2022-12-12T15:27:32.733Z,100.00
2022-12-12T15:30:42.029Z,100.00
2022-12-12T15:33:49.756Z,100.00
2022-12-12T15:36:57.263Z,100.00
2022-12-12T15:40:20.183Z,100.00
2022-12-12T15:43:28.529Z,100.00
2022-12-12T15:46:35.147Z,100.00
2022-12-12T15:49:44.380Z,100.00
2022-12-12T15:53:05.734Z,100.00
2022-12-12T15:56:14.324Z,100.00
2022-12-12T15:59:30.192Z,100.00
2022-12-12T16:02:37.221Z,100.00
2022-12-12T16:05:44.106Z,100.00
2022-12-12T16:09:00.686Z,100.00
2022-12-12T16:12:07.205Z,100.00
2022-12-12T16:15:29.055Z,100.00
2022-12-12T16:18:36.175Z,100.00
2022-12-12T16:21:44.045Z,100.00
2022-12-12T16:24:54.609Z,100.00
2022-12-12T16:28:12.771Z,100.00
2022-12-12T16:31:19.713Z,100.00
2022-12-12T16:34:25.757Z,100.00
2022-12-12T16:37:28.516Z,100.00
2022-12-12T16:40:36.385Z,100.00
2022-12-12T16:43:43.372Z,97.98
2022-12-12T16:46:49.945Z,100.00
2022-12-12T16:49:56.229Z,100.00
2022-12-12T16:53:02.238Z,99.04
2022-12-12T16:56:12.567Z,100.00
2022-12-12T16:59:18.931Z,100.00
2022-12-12T17:02:25.873Z,100.00
2022-12-12T17:05:32.565Z,100.00
2022-12-12T17:08:39.271Z,100.00
2022-12-12T17:11:47.269Z,100.00
2022-12-12T17:14:53.462Z,100.00
2022-12-12T17:18:00.180Z,100.00
2022-12-12T17:21:07.120Z,100.00
2022-12-12T17:24:14.048Z,100.00
2022-12-12T17:27:21.848Z,100.00
2022-12-12T17:30:27.928Z,100.00
2022-12-12T17:33:33.969Z,100.00
2022-12-12T17:36:40.212Z,100.00
2022-12-12T17:39:46.381Z,100.00
2022-12-12T17:42:53.949Z,100.00
2022-12-12T17:46:02.202Z,100.00
2022-12-12T17:49:08.308Z,100.00
2022-12-12T17:52:14.412Z,100.00
2022-12-12T17:55:52.001Z,100.00
2022-12-12T17:58:49.673Z,100.00
2022-12-12T18:01:56.042Z,100.00
2022-12-12T18:05:03.787Z,100.00
2022-12-12T18:08:12.661Z,100.00
2022-12-12T18:11:23.510Z,100.00
2022-12-12T18:14:31.199Z,100.00
2022-12-12T18:17:37.639Z,100.00
2022-12-12T18:20:44.220Z,100.00
2022-12-12T18:23:50.377Z,100.00
2022-12-12T18:26:58.452Z,100.00
2022-12-12T18:30:06.798Z,100.00
2022-12-12T18:33:13.011Z,100.00
2022-12-12T18:36:21.037Z,100.00
2022-12-12T18:39:27.533Z,100.00
2022-12-12T18:42:33.998Z,100.00
2022-12-12T18:45:41.750Z,100.00
2022-12-12T18:48:49.348Z,100.00
2022-12-12T18:51:55.294Z,100.00
2022-12-12T18:55:01.554Z,100.00
2022-12-12T18:58:07.770Z,100.00
2022-12-12T19:01:17.608Z,100.00
2022-12-12T19:04:23.934Z,100.00
2022-12-12T19:07:31.420Z,100.00
2022-12-12T19:10:38.280Z,100.00
2022-12-12T19:13:45.134Z,100.00
2022-12-12T19:16:52.867Z,100.00
2022-12-12T19:19:59.088Z,100.00
2022-12-12T19:23:05.770Z,100.00
2022-12-12T19:26:15.059Z,100.00
2022-12-12T19:29:21.795Z,100.00
2022-12-12T19:32:29.539Z,100.00
2022-12-12T19:35:38.318Z,100.00
2022-12-12T19:38:45.624Z,100.00
2022-12-12T19:41:52.104Z,100.00
2022-12-12T19:44:58.498Z,100.00
2022-12-12T19:48:06.213Z,100.00
2022-12-12T19:51:15.306Z,100.00
2022-12-12T19:54:22.284Z,100.00
2022-12-12T19:57:28.465Z,100.00
2022-12-12T20:00:34.980Z,100.00
2022-12-12T20:03:43.284Z,100.00
2022-12-12T20:06:50.445Z,100.00
2022-12-12T20:09:56.982Z,100.00
2022-12-12T20:13:03.239Z,100.00
2022-12-12T20:16:12.895Z,100.00
2022-12-12T20:19:22.255Z,100.00
2022-12-12T20:22:28.809Z,100.00
2022-12-12T20:25:35.337Z,100.00
2022-12-12T20:28:42.014Z,100.00
2022-12-12T20:31:48.647Z,100.00
2022-12-12T20:34:56.467Z,100.00
2022-12-12T20:38:02.690Z,100.00
2022-12-12T20:41:11.170Z,100.00
2022-12-12T20:44:17.573Z,100.00
2022-12-12T20:47:24.001Z,100.00
2022-12-12T20:50:31.516Z,100.00
2022-12-12T20:53:37.740Z,100.00
2022-12-12T20:56:46.297Z,100.00
2022-12-12T20:59:54.852Z,100.00
2022-12-12T21:03:01.023Z,100.00
2022-12-12T21:06:13.739Z,100.00
2022-12-12T21:09:25.020Z,100.00
2022-12-12T21:12:32.455Z,100.00
2022-12-12T21:15:39.059Z,100.00
2022-12-12T21:18:45.562Z,100.00
2022-12-12T21:21:53.913Z,100.00
2022-12-12T21:25:00.032Z,100.00
2022-12-12T21:28:06.617Z,100.00
2022-12-12T21:31:17.318Z,100.00
2022-12-12T21:34:24.341Z,100.00
2022-12-12T21:37:35.843Z,100.00
2022-12-12T21:40:45.001Z,100.00
2022-12-12T21:43:51.559Z,100.00
2022-12-12T21:46:57.540Z,100.00
2022-12-12T21:50:03.742Z,100.00
2022-12-12T21:53:28.430Z,100.00
2022-12-12T21:56:34.495Z,100.00
2022-12-12T21:59:42.087Z,100.00
2022-12-12T22:02:50.215Z,100.00
2022-12-12T22:05:56.503Z,100.00
2022-12-12T22:09:07.444Z,100.00
2022-12-12T22:12:13.383Z,100.00
2022-12-12T22:15:25.248Z,100.00
2022-12-12T22:18:31.848Z,100.00
2022-12-12T22:21:38.356Z,100.00
2022-12-12T22:24:45.706Z,100.00
2022-12-12T22:27:51.871Z,100.00
2022-12-12T22:31:04.812Z,100.00
2022-12-12T22:34:14.675Z,100.00
2022-12-12T22:37:21.059Z,100.00
2022-12-12T22:40:28.506Z,100.00
2022-12-12T22:43:36.098Z,100.00
2022-12-12T22:46:44.412Z,100.00
2022-12-12T22:49:50.947Z,100.00
2022-12-12T22:52:57.097Z,100.00
2022-12-12T22:56:05.012Z,100.00
2022-12-12T22:59:14.084Z,100.00
2022-12-12T23:02:24.986Z,100.00
2022-12-12T23:05:31.813Z,100.00
2022-12-12T23:08:38.061Z,100.00
2022-12-12T23:11:46.652Z,100.00
2022-12-12T23:14:52.883Z,100.00
2022-12-12T23:17:58.961Z,100.00
2022-12-12T23:21:05.996Z,100.00
2022-12-12T23:24:12.494Z,100.00
2022-12-12T23:27:20.025Z,100.00
2022-12-12T23:30:26.210Z,100.00
2022-12-12T23:33:32.572Z,100.00
2022-12-12T23:36:39.211Z,100.00
2022-12-12T23:39:45.333Z,100.00
2022-12-12T23:42:52.978Z,100.00
2022-12-12T23:46:02.721Z,100.00
2022-12-12T23:49:14.107Z,100.00
2022-12-12T23:52:19.939Z,100.00
2022-12-12T23:55:26.136Z,100.00
2022-12-12T23:58:33.486Z,100.00
